Time;durP1;ratioP1;P1;durP2;ratioP2;P2;SDS_P1;SDS_P2;PMS_P1;PMS_P2;Temp;Humidity;BMP_temperature;BMP_pressure;BME280_temperature;BME280_humidity;BME280_pressure;Samples;Min_cycle;Max_cycle;Signal;HPM_P1;HPM_P2
2023/07/22 00:00:40;;;;;;;8.43;5.38;;;;;;;14.72;90.63;100217.88;5074404;28;20047;-42
2023/07/22 00:03:07;;;;;;;9.48;5.47;;;;;;;14.72;90.66;100223.44;5073678;28;20433;-43
2023/07/22 00:05:34;;;;;;;6.90;4.55;;;;;;;14.72;90.57;100209.50;5074983;28;20045;-43
2023/07/22 00:08:01;;;;;;;7.43;4.65;;;;;;;14.71;90.58;100216.28;5065051;28;20036;-42
2023/07/22 00:10:27;;;;;;;8.63;5.07;;;;;;;14.69;90.42;100209.50;5054102;28;20068;-42
2023/07/22 00:12:54;;;;;;;7.60;4.93;;;;;;;14.69;90.59;100207.53;5076141;28;20044;-42
2023/07/22 00:15:23;;;;;;;10.50;5.03;;;;;;;14.68;90.55;100186.41;5074701;28;20125;-43
2023/07/22 00:17:51;;;;;;;6.88;5.53;;;;;;;14.67;90.69;100182.00;5074949;28;20048;-43
2023/07/22 00:20:19;;;;;;;8.05;4.68;;;;;;;14.66;90.75;100177.63;5074480;28;20046;-42
2023/07/22 00:22:46;;;;;;;5.90;4.05;;;;;;;14.62;90.90;100182.38;5055109;28;20477;-43
2023/07/22 00:25:13;;;;;;;8.82;5.25;;;;;;;14.59;90.90;100172.00;5068446;28;20178;-44
2023/07/22 00:27:41;;;;;;;8.40;4.85;;;;;;;14.59;90.97;100169.19;5056050;28;20123;-43
2023/07/22 00:30:09;;;;;;;9.57;5.72;;;;;;;14.60;90.74;100181.97;5074171;28;20046;-43
2023/07/22 00:32:40;;;;;;;6.63;4.88;;;;;;;14.56;91.07;100165.22;5074298;28;20048;-43
2023/07/22 00:35:09;;;;;;;8.07;5.38;;;;;;;14.58;91.14;100170.41;5074350;28;20538;-43
2023/07/22 00:37:36;;;;;;;8.48;5.72;;;;;;;14.54;91.20;100162.00;5071689;28;20054;-43
2023/07/22 00:40:11;;;;;;;7.85;4.88;;;;;;;14.53;91.29;100163.19;5070889;28;20498;-43
2023/07/22 00:42:39;;;;;;;7.47;4.93;;;;;;;14.52;91.11;100166.38;5067556;28;20098;-43
2023/07/22 00:45:07;;;;;;;8.80;5.07;;;;;;;14.50;91.42;100152.03;5074136;28;20388;-44
2023/07/22 00:47:35;;;;;;;8.10;5.28;;;;;;;14.48;91.37;100152.41;5056192;28;20041;-45
2023/07/22 00:50:03;;;;;;;7.47;5.22;;;;;;;14.47;91.51;100139.69;5073089;28;20109;-43
2023/07/22 00:52:30;;;;;;;8.10;4.97;;;;;;;14.48;91.55;100140.50;5075571;28;20481;-43
2023/07/22 00:54:58;;;;;;;10.05;6.22;;;;;;;14.46;91.58;100126.13;5072770;28;20087;-43
2023/07/22 00:57:25;;;;;;;9.55;5.40;;;;;;;14.44;91.62;100131.28;5073837;28;20371;-43
2023/07/22 00:59:51;;;;;;;10.73;5.63;;;;;;;14.46;91.72;100134.47;5073439;28;20078;-43
2023/07/22 01:02:19;;;;;;;8.02;5.18;;;;;;;14.46;91.86;100129.72;5073746;28;20045;-42
2023/07/22 01:04:46;;;;;;;8.93;5.35;;;;;;;14.47;92.00;100114.63;5073845;28;20051;-42
2023/07/22 01:07:13;;;;;;;8.18;4.88;;;;;;;14.47;92.11;100119.38;5073248;28;20044;-43
2023/07/22 01:09:42;;;;;;;7.78;4.63;;;;;;;14.47;92.07;100106.25;5073621;28;20045;-43
2023/07/22 01:12:10;;;;;;;11.32;5.38;;;;;;;14.47;92.16;100105.47;5073586;28;20083;-42
2023/07/22 01:14:40;;;;;;;7.45;4.70;;;;;;;14.46;91.87;100095.50;5078088;28;20049;-43
2023/07/22 01:17:11;;;;;;;5.97;4.07;;;;;;;14.45;92.20;100091.94;5065576;28;20059;-43
2023/07/22 01:19:38;;;;;;;4.75;3.22;;;;;;;14.43;92.40;100085.94;5073499;28;20056;-44
2023/07/22 01:22:09;;;;;;;5.35;4.10;;;;;;;14.44;92.31;100079.19;5073572;28;20056;-42
2023/07/22 01:24:37;;;;;;;6.93;3.83;;;;;;;14.45;92.43;100078.00;5054685;28;20406;-43
2023/07/22 01:27:10;;;;;;;4.65;3.55;;;;;;;14.45;92.37;100066.06;5055469;28;20044;-43
2023/07/22 01:29:37;;;;;;;6.00;3.45;;;;;;;14.45;92.40;100066.06;5073302;28;20055;-43
2023/07/22 01:32:05;;;;;;;6.28;3.17;;;;;;;14.47;92.44;100066.47;5072765;28;20051;-42
2023/07/22 01:34:31;;;;;;;5.47;3.70;;;;;;;14.48;92.41;100056.94;5072838;28;20375;-42
2023/07/22 01:36:59;;;;;;;5.25;3.85;;;;;;;14.50;92.30;100057.34;5073428;28;20068;-43
2023/07/22 01:39:27;;;;;;;4.93;3.75;;;;;;;14.48;92.57;100052.13;5073086;28;20444;-43
2023/07/22 01:41:54;;;;;;;5.57;3.45;;;;;;;14.51;92.52;100053.34;5065005;28;20045;-42
2023/07/22 01:44:20;;;;;;;5.10;3.65;;;;;;;14.50;92.53;100048.97;5071137;28;20083;-44
2023/07/22 01:46:47;;;;;;;4.35;3.25;;;;;;;14.49;92.54;100039.00;5073262;28;20482;-43
2023/07/22 01:49:14;;;;;;;4.07;2.85;;;;;;;14.48;92.65;100037.44;5072189;28;20086;-42
2023/07/22 01:51:41;;;;;;;4.47;2.85;;;;;;;14.49;92.51;100030.66;5071521;28;20483;-43
2023/07/22 01:54:09;;;;;;;3.78;2.38;;;;;;;14.48;92.69;100032.63;5072542;28;20512;-44
2023/07/22 01:56:36;;;;;;;5.15;3.22;;;;;;;14.47;92.48;100027.47;5056474;28;20082;-43
2023/07/22 01:59:03;;;;;;;3.33;2.50;;;;;;;14.45;92.57;100015.94;5056906;28;20036;-43
2023/07/22 02:01:31;;;;;;;2.90;2.30;;;;;;;14.43;92.69;100016.28;5072539;28;20052;-43
2023/07/22 02:03:58;;;;;;;3.15;2.42;;;;;;;14.45;92.62;100021.50;5072625;28;20497;-45
2023/07/22 02:06:26;;;;;;;3.72;2.53;;;;;;;14.42;92.90;100000.78;5071928;28;20059;-43
2023/07/22 02:08:53;;;;;;;3.03;2.25;;;;;;;14.42;92.94;100006.38;5072387;28;20506;-43
2023/07/22 02:11:20;;;;;;;3.20;2.10;;;;;;;14.42;93.08;100000.78;5072586;28;20052;-44
2023/07/22 02:13:47;;;;;;;2.53;2.25;;;;;;;14.41;93.13;99995.59;5059401;28;20041;-43
2023/07/22 02:16:13;;;;;;;2.90;2.45;;;;;;;14.39;93.17;99989.63;5072377;28;20109;-43
2023/07/22 02:18:40;;;;;;;2.58;2.03;;;;;;;14.36;92.92;99980.06;5072440;28;20052;-42
2023/07/22 02:21:07;;;;;;;4.10;2.63;;;;;;;14.35;93.63;99975.66;5072004;28;20044;-43
2023/07/22 02:23:34;;;;;;;4.20;2.85;;;;;;;14.36;93.58;99985.63;5071361;28;20123;-43
2023/07/22 02:26:01;;;;;;;3.97;2.13;;;;;;;14.36;93.53;99982.03;5071344;28;20044;-43
2023/07/22 02:28:28;;;;;;;3.60;2.50;;;;;;;14.35;94.05;99972.09;5072069;28;20048;-42
2023/07/22 02:30:55;;;;;;;2.80;2.10;;;;;;;14.35;94.03;99969.31;5071392;28;20056;-43
2023/07/22 02:33:21;;;;;;;4.32;2.50;;;;;;;14.36;94.27;99965.34;5071490;28;20126;-43
2023/07/22 02:35:49;;;;;;;2.22;1.80;;;;;;;14.34;94.63;99960.16;5069521;28;20461;-43
2023/07/22 02:38:15;;;;;;;4.18;2.08;;;;;;;14.34;94.65;99951.00;5063221;28;20486;-44
2023/07/22 02:40:42;;;;;;;2.83;1.63;;;;;;;14.33;94.82;99958.56;5069400;28;20028;-45
2023/07/22 02:43:09;;;;;;;2.35;1.52;;;;;;;14.32;94.86;99950.59;5069492;28;20048;-42
2023/07/22 02:45:36;;;;;;;4.25;1.83;;;;;;;14.29;95.02;99945.78;5070901;28;20072;-46
2023/07/22 02:48:04;;;;;;;2.47;1.63;;;;;;;14.27;95.27;99935.00;5070191;28;20045;-43
2023/07/22 02:50:31;;;;;;;2.13;1.73;;;;;;;14.26;95.50;99941.00;5069300;28;20044;-43
2023/07/22 02:52:57;;;;;;;1.60;1.25;;;;;;;14.25;95.37;99933.81;5071041;28;20049;-42
2023/07/22 02:55:24;;;;;;;1.65;1.20;;;;;;;14.24;95.81;99938.59;5068562;28;20687;-43
2023/07/22 02:57:51;;;;;;;4.68;1.63;;;;;;;14.25;95.82;99922.69;5062022;28;20045;-44
2023/07/22 03:03:00;;;;;;;1.60;1.08;;;;;;;14.24;95.95;99929.44;5008223;23;20081;-43
2023/07/22 03:05:29;;;;;;;2.15;1.48;;;;;;;14.22;96.33;99934.59;5009159;28;20052;-43
2023/07/22 03:07:56;;;;;;;3.28;1.40;;;;;;;14.22;96.43;99923.44;5003007;28;20109;-42
2023/07/22 03:10:25;;;;;;;4.93;1.27;;;;;;;14.21;96.57;99916.31;5007661;28;20048;-43
2023/07/22 03:12:55;;;;;;;2.65;1.08;;;;;;;14.22;96.70;99909.53;5010149;28;20042;-44
2023/07/22 03:15:25;;;;;;;2.03;1.88;;;;;;;14.21;96.80;99910.75;4998060;28;20092;-43
2023/07/22 03:17:53;;;;;;;1.58;1.20;;;;;;;14.21;97.01;99913.53;5006331;28;20046;-43
2023/07/22 03:20:21;;;;;;;1.08;0.88;;;;;;;14.21;97.25;99905.16;5007061;28;20037;-43
2023/07/22 03:22:48;;;;;;;1.92;1.10;;;;;;;14.20;97.48;99904.38;4994338;28;20056;-43
2023/07/22 03:25:20;;;;;;;2.20;0.88;;;;;;;14.20;97.72;99903.56;4998926;28;20042;-43
2023/07/22 03:27:46;;;;;;;1.73;1.30;;;;;;;14.18;97.76;99895.59;5005678;28;20080;-42
2023/07/22 03:30:15;;;;;;;2.95;1.33;;;;;;;14.19;97.85;99899.19;4998481;28;20503;-43
2023/07/22 03:32:43;;;;;;;2.45;1.40;;;;;;;14.19;97.78;99897.19;4996149;28;20045;-42
2023/07/22 03:35:10;;;;;;;1.73;1.40;;;;;;;14.18;98.14;99892.81;5000555;28;20048;-42
2023/07/22 03:37:41;;;;;;;13.20;4.03;;;;;;;14.17;98.26;99888.44;5004465;28;20408;-43
2023/07/22 03:40:26;;;;;;;3.28;1.98;;;;;;;14.17;98.49;99882.88;5010512;28;20050;-42
2023/07/22 03:42:54;;;;;;;3.47;1.48;;;;;;;14.17;98.37;99882.06;4996356;28;20372;-43
2023/07/22 03:45:22;;;;;;;4.70;2.53;;;;;;;14.16;98.67;99877.72;5011281;28;20042;-43
2023/07/22 03:47:57;;;;;;;3.22;1.77;;;;;;;14.15;99.06;99884.44;5011149;28;20053;-44
2023/07/22 03:50:25;;;;;;;3.30;1.73;;;;;;;14.14;99.17;99877.31;4997693;28;20085;-43
2023/07/22 03:52:51;;;;;;;2.78;2.03;;;;;;;14.11;99.33;99862.16;5011334;28;20142;-43
2023/07/22 03:55:19;;;;;;;4.68;1.75;;;;;;;14.11;99.29;99867.72;4998083;28;20058;-43
2023/07/22 03:57:46;;;;;;;3.53;2.38;;;;;;;14.11;99.60;99864.16;5012660;28;20056;-42
2023/07/22 04:00:13;;;;;;;5.63;2.30;;;;;;;14.13;99.71;99867.34;5010880;28;20096;-42
2023/07/22 04:02:40;;;;;;;6.55;2.47;;;;;;;14.13;99.92;99861.78;5027647;28;20050;-42
2023/07/22 04:05:08;;;;;;;2.88;2.15;;;;;;;14.13;100.00;99859.00;5029687;28;20562;-42
2023/07/22 04:07:35;;;;;;;4.03;2.42;;;;;;;14.11;100.00;99861.38;5011929;28;20053;-42
2023/07/22 04:10:02;;;;;;;5.05;2.40;;;;;;;14.11;100.00;99853.03;5026201;28;20042;-43
2023/07/22 04:12:29;;;;;;;4.30;2.53;;;;;;;14.12;100.00;99840.69;5030860;28;20056;-45
2023/07/22 04:14:56;;;;;;;2.90;2.28;;;;;;;14.14;100.00;99843.91;5020415;28;20466;-43
2023/07/22 04:17:23;;;;;;;4.70;2.97;;;;;;;14.14;100.00;99841.13;5030973;28;20176;-45
2023/07/22 04:19:53;;;;;;;4.55;2.85;;;;;;;14.13;100.00;99829.19;5013250;28;20116;-43
2023/07/22 04:22:22;;;;;;;4.60;2.70;;;;;;;14.13;100.00;99836.72;5029851;28;20530;-43
2023/07/22 04:24:49;;;;;;;6.28;3.08;;;;;;;14.13;100.00;99837.53;5020097;28;20125;-42
2023/07/22 04:27:17;;;;;;;6.43;3.10;;;;;;;14.14;100.00;99827.19;5030435;28;20081;-43
2023/07/22 04:29:43;;;;;;;5.25;3.00;;;;;;;14.15;100.00;99823.22;5030702;28;20073;-44
2023/07/22 04:32:10;;;;;;;7.75;3.60;;;;;;;14.17;100.00;99827.19;5030785;28;20072;-43
2023/07/22 04:34:37;;;;;;;6.10;3.60;;;;;;;14.18;100.00;99817.66;5028791;28;20103;-44
2023/07/22 04:37:04;;;;;;;5.60;3.63;;;;;;;14.19;100.00;99804.56;5031018;28;20136;-42
2023/07/22 04:39:31;;;;;;;6.28;3.70;;;;;;;14.20;100.00;99811.69;5012534;28;20041;-42
2023/07/22 04:41:58;;;;;;;7.97;4.30;;;;;;;14.20;100.00;99800.56;5021753;28;20529;-43
2023/07/22 04:44:24;;;;;;;7.90;4.22;;;;;;;14.20;100.00;99800.56;5030353;28;20091;-44
2023/07/22 04:46:51;;;;;;;6.00;3.28;;;;;;;14.19;100.00;99793.41;5030119;28;20041;-42
2023/07/22 04:49:18;;;;;;;7.88;3.85;;;;;;;14.19;100.00;99804.56;5022929;28;20052;-42
2023/07/22 04:51:46;;;;;;;7.32;4.10;;;;;;;14.20;100.00;99790.22;5027563;28;20057;-43
2023/07/22 04:54:14;;;;;;;7.57;3.92;;;;;;;14.21;100.00;99788.25;5030027;28;20041;-43
2023/07/22 04:56:42;;;;;;;5.60;3.50;;;;;;;14.22;100.00;99784.25;5025988;28;20045;-42
2023/07/22 04:59:10;;;;;;;4.95;3.28;;;;;;;14.24;100.00;99782.69;5020597;28;20084;-43
2023/07/22 05:01:37;;;;;;;4.72;3.08;;;;;;;14.24;100.00;99787.47;5026032;28;20064;-42
2023/07/22 05:04:05;;;;;;;5.60;2.78;;;;;;;14.26;100.00;99783.09;5024577;28;20034;-42
2023/07/22 05:06:32;;;;;;;5.10;3.40;;;;;;;14.27;100.00;99773.53;5021875;28;20051;-42
2023/07/22 05:09:00;;;;;;;6.45;2.63;;;;;;;14.30;100.00;99780.31;5033936;28;20049;-42
2023/07/22 05:11:26;;;;;;;4.72;2.65;;;;;;;14.31;100.00;99768.81;5031546;28;20060;-42
2023/07/22 05:13:54;;;;;;;5.05;2.60;;;;;;;14.33;100.00;99762.84;5024012;28;20140;-42
2023/07/22 05:16:21;;;;;;;4.32;3.05;;;;;;;14.34;100.00;99764.44;5014706;28;20414;-42
2023/07/22 05:18:48;;;;;;;5.00;3.00;;;;;;;14.35;100.00;99761.25;5032547;28;20044;-42
2023/07/22 05:21:15;;;;;;;3.45;1.88;;;;;;;14.37;100.00;99758.09;5030574;28;20061;-43
2023/07/22 05:23:41;;;;;;;2.63;2.05;;;;;;;14.38;100.00;99760.47;5030808;28;20049;-44
2023/07/22 05:26:08;;;;;;;2.55;2.20;;;;;;;14.39;100.00;99767.66;5031459;28;20049;-43
2023/07/22 05:28:35;;;;;;;3.42;2.05;;;;;;;14.41;100.00;99764.44;5002610;28;20049;-44
2023/07/22 05:31:02;;;;;;;3.70;2.65;;;;;;;14.41;100.00;99756.91;5026194;28;20038;-43
2023/07/22 05:33:29;;;;;;;3.15;2.13;;;;;;;14.42;100.00;99760.50;5023916;28;20081;-42
2023/07/22 05:35:56;;;;;;;1.90;1.35;;;;;;;14.44;100.00;99755.31;5003837;28;20048;-42
2023/07/22 05:38:23;;;;;;;2.63;1.85;;;;;;;14.45;100.00;99754.13;5021685;28;20037;-43
2023/07/22 05:40:51;;;;;;;2.35;1.92;;;;;;;14.47;100.00;99754.53;5027250;28;20458;-42
2023/07/22 05:43:18;;;;;;;3.70;1.92;;;;;;;14.47;100.00;99752.53;5009303;28;20144;-45
2023/07/22 05:45:49;;;;;;;1.60;1.30;;;;;;;14.47;100.00;99752.53;5020651;28;20239;-42
2023/07/22 05:48:16;;;;;;;2.58;1.95;;;;;;;14.48;100.00;99740.19;5020550;28;20050;-42
2023/07/22 05:50:43;;;;;;;2.83;1.90;;;;;;;14.51;100.00;99735.81;5027118;28;20061;-42
2023/07/22 05:53:10;;;;;;;3.97;1.52;;;;;;;14.53;100.00;99739.03;5029867;28;20049;-42
2023/07/22 05:55:37;;;;;;;2.67;1.95;;;;;;;14.53;100.00;99734.22;5025895;28;20491;-42
2023/07/22 05:58:05;;;;;;;2.45;1.98;;;;;;;14.56;100.00;99727.09;5023426;28;20060;-44
2023/07/22 06:00:35;;;;;;;2.67;1.90;;;;;;;14.58;100.00;99721.91;5024012;28;20069;-42
2023/07/22 06:03:02;;;;;;;3.70;2.20;;;;;;;14.60;100.00;99723.13;5032282;28;20447;-43
2023/07/22 06:05:29;;;;;;;3.35;2.15;;;;;;;14.62;100.00;99719.91;5026858;28;20041;-43
2023/07/22 06:07:57;;;;;;;4.43;2.42;;;;;;;14.65;100.00;99721.91;5019475;28;20513;-43
2023/07/22 06:10:24;;;;;;;3.22;2.28;;;;;;;14.68;100.00;99717.53;5028789;28;20053;-42
2023/07/22 06:12:51;;;;;;;4.28;2.20;;;;;;;14.71;100.00;99716.75;5030640;28;20036;-42
2023/07/22 06:15:18;;;;;;;3.42;2.28;;;;;;;14.72;100.00;99712.78;5029321;28;20411;-42
2023/07/22 06:17:45;;;;;;;3.42;2.22;;;;;;;14.74;100.00;99721.53;5027648;28;20073;-41
2023/07/22 06:20:12;;;;;;;3.30;2.45;;;;;;;14.76;100.00;99719.94;5031385;28;20042;-41
2023/07/22 06:22:39;;;;;;;3.78;2.30;;;;;;;14.79;100.00;99708.00;5019919;28;20049;-42
2023/07/22 06:25:06;;;;;;;5.75;2.53;;;;;;;14.80;100.00;99701.22;5029499;28;20077;-41
2023/07/22 06:27:34;;;;;;;3.45;2.17;;;;;;;14.84;100.00;99704.81;5031864;28;20038;-41
2023/07/22 06:30:01;;;;;;;3.67;2.90;;;;;;;14.87;100.00;99709.59;5030094;28;20041;-41
2023/07/22 06:32:29;;;;;;;5.15;2.40;;;;;;;14.90;100.00;99699.63;5013594;28;20092;-44
2023/07/22 06:34:57;;;;;;;2.63;2.05;;;;;;;14.93;100.00;99696.81;5030054;28;20152;-42
2023/07/22 06:37:24;;;;;;;5.68;2.55;;;;;;;14.96;100.00;99695.22;5025166;28;20036;-42
2023/07/22 06:39:51;;;;;;;3.58;2.80;;;;;;;15.00;100.00;99696.84;5024619;28;20523;-41
2023/07/22 06:42:18;;;;;;;3.35;2.22;;;;;;;15.02;100.00;99697.22;5023162;28;20054;-42
2023/07/22 06:44:45;;;;;;;2.90;2.30;;;;;;;15.05;100.00;99692.84;5023507;28;20163;-41
2023/07/22 06:47:11;;;;;;;4.68;2.63;;;;;;;15.08;100.00;99687.25;5010150;28;20446;-42
2023/07/22 06:49:39;;;;;;;3.45;2.47;;;;;;;15.09;100.00;99685.28;5029152;28;20552;-42
2023/07/22 06:52:06;;;;;;;4.55;2.30;;;;;;;15.14;100.00;99694.00;5019607;28;20076;-41
2023/07/22 06:54:34;;;;;;;5.25;2.13;;;;;;;15.19;100.00;99688.03;5020337;28;20072;-42
2023/07/22 06:57:01;;;;;;;4.40;2.25;;;;;;;15.23;100.00;99683.25;5022388;28;20506;-41
2023/07/22 06:59:28;;;;;;;4.10;2.67;;;;;;;15.30;100.00;99687.22;5031887;28;20136;-41
2023/07/22 07:01:55;;;;;;;4.07;2.60;;;;;;;15.33;100.00;99687.19;5031492;28;20736;-41
2023/07/22 07:04:22;;;;;;;4.38;2.65;;;;;;;15.38;100.00;99686.78;5015424;28;20127;-42
2023/07/22 07:06:50;;;;;;;3.85;2.47;;;;;;;15.43;100.00;99678.00;5012877;28;20128;-43
2023/07/22 07:09:16;;;;;;;4.13;2.38;;;;;;;15.47;100.00;99684.41;5024069;28;20128;-42
2023/07/22 07:11:44;;;;;;;9.68;2.97;;;;;;;15.53;100.00;99685.56;5028174;28;20049;-42
2023/07/22 07:14:11;;;;;;;3.38;2.40;;;;;;;15.59;100.00;99683.97;5031622;28;20045;-42
2023/07/22 07:16:38;;;;;;;2.95;2.20;;;;;;;15.64;100.00;99674.38;5031488;28;20082;-42
2023/07/22 07:19:06;;;;;;;3.83;1.67;;;;;;;15.68;100.00;99669.56;5031427;28;20056;-42
2023/07/22 07:21:35;;;;;;;5.18;1.95;;;;;;;15.71;100.00;99677.94;5031382;28;20110;-42
2023/07/22 07:24:02;;;;;;;3.20;2.63;;;;;;;15.73;100.00;99675.53;5031351;28;20077;-42
2023/07/22 07:26:29;;;;;;;3.83;1.95;;;;;;;15.79;100.00;99673.91;5016820;28;20051;-42
2023/07/22 07:28:55;;;;;;;4.38;2.22;;;;;;;15.82;100.00;99667.50;5031281;28;20045;-43
2023/07/22 07:31:22;;;;;;;2.70;1.98;;;;;;;15.86;100.00;99664.69;5023035;28;20499;-44
2023/07/22 07:33:49;;;;;;;2.63;1.60;;;;;;;15.90;100.00;99662.69;5031413;28;20499;-42
2023/07/22 07:36:15;;;;;;;2.78;1.67;;;;;;;15.95;100.00;99656.66;5030928;28;20037;-42
2023/07/22 07:38:42;;;;;;;2.63;1.55;;;;;;;16.00;100.00;99659.03;5031291;28;20049;-42
2023/07/22 07:41:11;;;;;;;2.38;1.70;;;;;;;16.07;100.00;99667.34;5030789;28;20041;-42
2023/07/22 07:43:42;;;;;;;2.63;1.88;;;;;;;16.16;100.00;99658.53;5031191;28;20914;-42
2023/07/22 07:46:17;;;;;;;1.98;1.50;;;;;;;16.25;100.00;99658.88;5030044;28;20045;-42
2023/07/22 07:48:45;;;;;;;2.95;1.27;;;;;;;16.35;100.00;99653.22;5030112;28;20712;-42
2023/07/22 07:51:14;;;;;;;3.53;1.60;;;;;;;16.45;100.00;99657.94;5029606;28;20046;-42
2023/07/22 07:53:43;;;;;;;3.50;1.30;;;;;;;16.52;100.00;99651.47;5028483;28;20088;-42
2023/07/22 07:56:11;;;;;;;2.35;1.35;;;;;;;16.62;100.00;99658.22;5026481;28;20045;-43
2023/07/22 07:58:38;;;;;;;2.63;1.77;;;;;;;16.68;100.00;99648.97;5003910;28;20084;-42
2023/07/22 08:01:05;;;;;;;3.00;1.38;;;;;;;16.74;100.00;99657.72;4997002;28;20080;-42
2023/07/22 08:03:34;;;;;;;3.75;1.35;;;;;;;16.75;100.00;99653.72;5024517;28;20431;-42
2023/07/22 08:06:02;;;;;;;4.95;1.38;;;;;;;16.73;100.00;99650.53;5021800;28;20107;-42
2023/07/22 08:08:30;;;;;;;1.48;1.00;;;;;;;16.72;100.00;99646.16;5030569;28;20045;-43
2023/07/22 08:10:58;;;;;;;1.77;0.85;;;;;;;16.69;100.00;99644.19;5030757;28;20045;-42
2023/07/22 08:13:25;;;;;;;1.55;1.10;;;;;;;16.70;100.00;99640.19;5029487;28;20057;-43
2023/07/22 08:15:53;;;;;;;1.05;0.80;;;;;;;16.71;100.00;99636.16;5020887;28;20049;-48
2023/07/22 08:18:20;;;;;;;5.72;2.05;;;;;;;16.73;100.00;99640.13;5029041;28;20399;-43
2023/07/22 08:20:47;;;;;;;3.50;1.17;;;;;;;16.79;100.00;99632.91;5033755;28;20088;-45
2023/07/22 08:23:15;;;;;;;1.52;0.98;;;;;;;16.87;100.00;99628.81;5034053;28;20037;-42
2023/07/22 08:25:42;;;;;;;3.97;0.85;;;;;;;16.98;100.00;99628.72;5034880;28;20411;-43
2023/07/22 08:28:08;;;;;;;1.20;1.02;;;;;;;17.11;100.00;99637.38;5034295;28;20125;-42
2023/07/22 08:30:35;;;;;;;4.13;1.85;;;;;;;17.25;100.00;99626.03;5034891;28;20091;-42
2023/07/22 08:33:02;;;;;;;1.20;1.13;;;;;;;17.36;100.00;99632.31;5034279;28;20063;-42
2023/07/22 08:35:29;;;;;;;2.60;1.10;;;;;;;17.40;100.00;99625.44;5034855;28;20077;-43
2023/07/22 08:37:59;;;;;;;4.97;1.30;;;;;;;17.43;100.00;99627.41;5034597;28;20068;-42
2023/07/22 08:40:26;;;;;;;1.48;0.98;;;;;;;17.47;100.00;99622.56;5028700;28;20522;-46
2023/07/22 08:42:53;;;;;;;1.10;1.00;;;;;;;17.46;100.00;99615.38;5023854;28;20053;-43
2023/07/22 08:45:21;;;;;;;1.65;1.17;;;;;;;17.43;100.00;99621.00;5022235;28;20132;-42
2023/07/22 08:47:51;;;;;;;0.80;0.70;;;;;;;17.39;100.00;99618.28;5028874;28;20073;-43
2023/07/22 08:50:21;;;;;;;2.15;0.98;;;;;;;17.36;100.00;99616.31;5004953;28;20472;-43
2023/07/22 08:52:49;;;;;;;1.13;0.98;;;;;;;17.32;100.00;99615.56;5019544;28;20049;-43
2023/07/22 08:55:16;;;;;;;1.38;1.00;;;;;;;17.33;100.00;99602.38;5023560;28;20065;-44
2023/07/22 08:57:46;;;;;;;1.85;1.10;;;;;;;17.40;100.00;99605.88;5030897;28;20079;-43
2023/07/22 09:00:14;;;;;;;0.93;0.70;;;;;;;17.50;100.00;99602.13;5030500;28;20619;-43
2023/07/22 09:02:41;;;;;;;4.15;0.90;;;;;;;17.59;100.00;99596.84;5028436;28;20487;-44
2023/07/22 09:05:09;;;;;;;0.70;0.60;;;;;;;17.68;100.00;99598.34;5028948;28;20135;-42
2023/07/22 09:07:38;;;;;;;0.80;0.80;;;;;;;17.77;100.00;99602.19;5026822;28;20045;-43
2023/07/22 09:10:08;;;;;;;1.20;0.93;;;;;;;17.80;100.00;99597.75;5005649;28;20038;-42
2023/07/22 09:12:40;;;;;;;1.77;0.70;;;;;;;17.79;100.00;99591.38;5029010;28;20041;-42
2023/07/22 09:15:10;;;;;;;0.75;0.60;;;;;;;17.77;100.00;99587.41;5023600;28;20045;-43
2023/07/22 09:17:39;;;;;;;1.38;0.82;;;;;;;17.77;100.00;99585.41;5025640;28;20103;-42
2023/07/22 09:20:06;;;;;;;0.80;0.60;;;;;;;17.81;100.00;99583.38;5027484;28;20514;-43
2023/07/22 09:22:34;;;;;;;1.42;1.00;;;;;;;17.89;100.00;99581.25;5030329;28;20053;-42
2023/07/22 09:25:18;;;;;;;1.10;1.00;;;;;;;18.02;100.00;99587.84;5032107;28;20069;-42
2023/07/22 09:27:49;;;;;;;0.98;0.60;;;;;;;18.11;99.87;99577.69;5027623;28;20415;-42
2023/07/22 09:30:25;;;;;;;0.63;0.63;;;;;;;18.14;99.35;99576.84;5013883;28;20044;-43
2023/07/22 09:32:54;;;;;;;1.25;0.77;;;;;;;18.20;99.41;99579.97;5015682;28;20054;-43
2023/07/22 09:35:22;;;;;;;1.38;0.65;;;;;;;18.24;99.15;99587.06;5018102;28;20144;-45
2023/07/22 09:37:49;;;;;;;12.50;4.85;;;;;;;18.30;98.77;99578.97;5028355;28;20072;-44
2023/07/22 09:40:27;;;;;;;3.28;1.45;;;;;;;18.34;98.65;99576.94;5032601;28;20524;-47
2023/07/22 09:42:57;;;;;;;0.98;0.98;;;;;;;18.32;98.81;99576.53;5030584;28;20124;-45
2023/07/22 09:45:25;;;;;;;1.05;0.70;;;;;;;18.32;98.81;99579.34;5023209;28;20492;-44
2023/07/22 09:47:54;;;;;;;1.10;0.77;;;;;;;18.35;98.53;99581.28;5026914;28;20444;-44
2023/07/22 09:50:25;;;;;;;0.77;0.70;;;;;;;18.41;98.76;99576.78;5020419;28;20183;-45
2023/07/22 09:52:59;;;;;;;5.03;0.98;;;;;;;18.45;98.30;99580.34;5030795;28;20049;-45
2023/07/22 09:55:28;;;;;;;1.30;0.65;;;;;;;18.51;98.36;99573.03;5028591;28;20045;-45
2023/07/22 09:58:00;;;;;;;0.68;0.60;;;;;;;18.56;97.89;99575.34;5024430;28;20049;-44
2023/07/22 10:00:33;;;;;;;0.75;0.73;;;;;;;18.63;97.63;99574.44;5027345;28;20037;-44
2023/07/22 10:03:04;;;;;;;0.50;0.50;;;;;;;18.70;97.71;99572.31;5012544;28;20091;-44
2023/07/22 10:05:34;;;;;;;0.75;0.70;;;;;;;18.73;97.19;99577.06;5018189;28;20487;-44
2023/07/22 10:08:02;;;;;;;0.70;0.70;;;;;;;18.71;97.05;99576.72;5020695;28;20080;-44
2023/07/22 10:10:36;;;;;;;3.03;0.40;;;;;;;18.71;96.40;99582.31;5028957;28;20056;-46
2023/07/22 10:13:04;;;;;;;0.93;0.90;;;;;;;18.70;96.32;99579.91;5016820;28;20041;-44
2023/07/22 10:15:34;;;;;;;3.33;1.10;;;;;;;18.67;95.96;99569.56;5012716;28;20050;-44
2023/07/22 10:18:02;;;;;;;0.60;0.60;;;;;;;18.58;95.45;99575.75;5024368;28;20124;-44
2023/07/22 10:20:30;;;;;;;1.38;0.63;;;;;;;18.53;95.42;99570.59;5027771;28;20052;-45
2023/07/22 10:22:58;;;;;;;0.63;0.63;;;;;;;18.48;95.17;99573.91;5030011;28;20041;-44
2023/07/22 10:25:25;;;;;;;0.40;0.40;;;;;;;18.42;95.11;99575.59;5029559;28;20103;-45
2023/07/22 10:27:53;;;;;;;2.17;1.13;;;;;;;18.40;95.35;99575.19;5032235;28;20041;-45
2023/07/22 10:30:19;;;;;;;0.73;0.73;;;;;;;18.40;94.99;99577.25;5021224;28;20126;-44
2023/07/22 10:32:51;;;;;;;0.90;0.90;;;;;;;18.39;95.33;99570.84;5025600;28;20441;-44
2023/07/22 10:35:25;;;;;;;0.90;0.90;;;;;;;18.40;95.18;99566.78;5015786;28;20046;-46
2023/07/22 10:37:53;;;;;;;2.45;0.70;;;;;;;18.44;95.14;99578.75;5021540;28;20149;-44
2023/07/22 10:40:29;;;;;;;1.38;0.77;;;;;;;18.45;95.26;99566.34;5018626;28;20123;-45
2023/07/22 10:43:03;;;;;;;1.20;0.95;;;;;;;18.46;95.21;99565.09;5017338;28;20545;-45
2023/07/22 10:45:32;;;;;;;3.60;1.27;;;;;;;18.43;94.69;99560.34;5011501;28;20134;-44
2023/07/22 10:48:02;;;;;;;1.33;0.90;;;;;;;18.44;94.79;99561.94;5032823;28;20049;-45
2023/07/22 10:50:50;;;;;;;0.95;0.88;;;;;;;18.56;95.21;99552.94;5008587;28;20045;-44
2023/07/22 10:53:24;;;;;;;1.40;0.93;;;;;;;18.69;94.36;99559.50;5027410;28;20049;-45
2023/07/22 10:56:02;;;;;;;1.10;1.00;;;;;;;18.82;94.39;99557.66;5030593;28;20475;-45
2023/07/22 10:58:33;;;;;;;1.42;0.90;;;;;;;18.84;93.72;99563.66;5021463;28;20057;-45
2023/07/22 11:01:27;;;;;;;2.20;1.50;;;;;;;18.79;93.42;99552.91;5027338;28;20061;-45
2023/07/22 11:04:10;;;;;;;2.30;0.90;;;;;;;18.75;94.07;99555.00;4999489;28;20150;-44
2023/07/22 11:06:56;;;;;;;0.70;0.70;;;;;;;18.75;93.93;99555.00;5004277;28;20042;-45
2023/07/22 11:09:29;;;;;;;1.50;1.00;;;;;;;18.84;93.54;99552.41;4998109;28;20046;-45
2023/07/22 11:12:00;;;;;;;1.10;1.00;;;;;;;18.91;93.67;99556.28;5002971;28;20100;-45
2023/07/22 11:14:32;;;;;;;0.95;0.68;;;;;;;18.86;93.22;99554.78;5006866;28;20099;-48
2023/07/22 11:17:01;;;;;;;1.60;1.00;;;;;;;18.76;93.00;99545.38;5001080;28;20632;-46
2023/07/22 11:19:28;;;;;;;2.70;1.17;;;;;;;18.68;93.53;99543.91;4997958;28;20109;-45
2023/07/22 11:21:54;;;;;;;1.13;1.02;;;;;;;18.67;94.05;99536.72;4999318;28;20109;-45
2023/07/22 11:24:22;;;;;;;3.83;1.40;;;;;;;18.74;94.04;99544.22;4993666;28;20046;-45
2023/07/22 11:26:51;;;;;;;1.98;1.00;;;;;;;18.81;94.21;99539.25;4979200;28;20510;-45
2023/07/22 11:29:20;;;;;;;3.38;1.20;;;;;;;18.93;94.38;99535.00;4990368;28;20274;-45
2023/07/22 11:31:49;;;;;;;1.90;1.38;;;;;;;19.14;93.88;99526.16;4993219;28;20041;-45
2023/07/22 11:34:20;;;;;;;1.92;1.20;;;;;;;19.41;94.08;99524.00;5001258;28;20093;-45